createdAt,value
2022-10-01T00:01:17.285Z,15.56
2022-10-01T00:03:44.683Z,15.16
2022-10-01T00:09:38.911Z,15.93
2022-10-01T00:12:05.768Z,15.87
2022-10-01T00:14:33.078Z,16.21
2022-10-01T00:17:00.814Z,15.97
2022-10-01T00:19:27.535Z,15.60
2022-10-01T00:21:54.119Z,15.84
2022-10-01T00:24:29.226Z,15.89
2022-10-01T00:26:55.769Z,15.97
2022-10-01T00:29:22.364Z,15.86
2022-10-01T00:31:49.322Z,15.82
2022-10-01T00:34:15.977Z,16.12
2022-10-01T00:36:42.708Z,16.15
2022-10-01T00:39:27.704Z,16.25
2022-10-01T00:42:31.573Z,16.31
2022-10-01T00:45:05.224Z,16.32
2022-10-01T00:47:34.790Z,16.39
2022-10-01T00:50:08.098Z,16.50
2022-10-01T00:52:39.883Z,16.62
2022-10-01T00:55:41.344Z,16.69
2022-10-01T00:58:24.820Z,16.70
2022-10-01T01:00:54.060Z,16.61
2022-10-01T01:03:20.724Z,16.57
2022-10-01T01:05:47.917Z,16.75
2022-10-01T01:08:15.459Z,16.58
2022-10-01T01:10:57.698Z,16.39
2022-10-01T01:14:09.158Z,16.68
2022-10-01T01:19:43.401Z,16.78
2022-10-01T01:22:13.566Z,16.57
2022-10-01T01:24:55.951Z,16.65
2022-10-01T01:27:43.306Z,16.75
2022-10-01T01:30:15.068Z,16.75
2022-10-01T01:33:12.542Z,16.64
2022-10-01T01:35:47.808Z,16.68
2022-10-01T01:38:19.337Z,16.51
2022-10-01T01:40:51.624Z,16.49
2022-10-01T01:43:24.183Z,16.42
2022-10-01T01:45:55.177Z,16.53
2022-10-01T01:48:49.538Z,16.50
2022-10-01T01:56:26.834Z,16.31
2022-10-01T01:58:57.419Z,16.56
2022-10-01T02:01:37.952Z,16.05
2022-10-01T02:04:32.216Z,16.17
2022-10-01T02:07:45.936Z,16.17
2022-10-01T02:10:24.425Z,16.09
2022-10-01T02:13:10.065Z,16.23
2022-10-01T02:15:50.340Z,16.02
2022-10-01T02:18:48.289Z,15.75
2022-10-01T02:21:52.065Z,15.48
2022-10-01T02:28:24.577Z,16.03
2022-10-01T02:30:54.643Z,15.92
2022-10-01T02:33:32.963Z,15.94
2022-10-01T02:36:04.756Z,15.86
2022-10-01T02:38:34.895Z,15.92
2022-10-01T02:41:05.090Z,15.90
2022-10-01T02:43:56.020Z,15.92
2022-10-01T02:46:44.596Z,16.00
2022-10-01T02:49:18.045Z,16.02
2022-10-01T02:51:53.758Z,15.97
2022-10-01T02:54:24.589Z,15.83
2022-10-01T03:03:10.128Z,15.99
2022-10-01T03:05:36.720Z,15.94
2022-10-01T03:08:05.625Z,15.86
2022-10-01T03:10:32.255Z,15.31
2022-10-01T03:13:01.659Z,14.54
2022-10-01T03:15:28.812Z,15.05
2022-10-01T03:18:17.550Z,15.49
2022-10-01T03:20:44.160Z,15.64
2022-10-01T03:23:10.749Z,15.77
2022-10-01T03:25:37.466Z,15.68
2022-10-01T03:28:04.117Z,15.57
2022-10-01T03:30:30.735Z,15.84
2022-10-01T03:38:43.328Z,15.82
2022-10-01T03:41:09.954Z,15.80
2022-10-01T03:43:36.694Z,15.95
2022-10-01T03:46:03.861Z,16.08
2022-10-01T03:48:33.610Z,15.91
2022-10-01T03:51:53.342Z,15.79
2022-10-01T05:56:09.703Z,16.26
2022-10-01T05:58:37.820Z,16.21
2022-10-01T06:01:05.082Z,16.26
2022-10-01T06:03:31.846Z,16.36
2022-10-01T06:06:00.937Z,16.36
2022-10-01T06:08:27.775Z,16.22
2022-10-01T06:11:00.035Z,15.98
2022-10-01T06:13:29.554Z,15.39
2022-10-01T06:16:18.992Z,15.39
2022-10-01T08:33:34.605Z,17.06
2022-10-01T08:36:10.856Z,17.06
2022-10-01T08:38:38.677Z,17.22
2022-10-01T08:41:38.004Z,17.31
2022-10-01T08:44:07.347Z,17.39
2022-10-01T08:46:36.981Z,17.39
2022-10-01T08:49:12.730Z,17.51
2022-10-01T08:52:26.354Z,17.59
2022-10-01T08:54:56.972Z,17.57
2022-10-01T08:57:33.919Z,17.57
2022-10-01T09:00:04.204Z,17.60
2022-10-01T09:02:42.021Z,17.72
2022-10-01T09:05:22.042Z,17.91
2022-10-01T09:08:25.084Z,17.66
2022-10-01T09:11:02.085Z,17.84
2022-10-01T09:14:12.564Z,17.80
2022-10-01T09:16:54.397Z,17.76
2022-10-01T09:19:46.061Z,17.75
2022-10-01T09:22:32.880Z,17.84
2022-10-01T09:25:26.265Z,18.01
2022-10-01T09:28:27.822Z,17.71
2022-10-01T09:43:11.663Z,17.95
2022-10-01T09:46:12.630Z,18.04
2022-10-01T09:52:02.723Z,18.16
2022-10-01T09:54:44.759Z,18.29
2022-10-01T10:02:31.653Z,18.88
2022-10-01T10:05:07.597Z,19.00
2022-10-01T10:07:41.592Z,19.03
2022-10-01T10:10:38.363Z,19.22
2022-10-01T10:13:10.930Z,19.17
2022-10-01T10:15:58.782Z,19.15
2022-10-01T10:18:34.649Z,19.25
2022-10-01T10:21:49.399Z,19.29
2022-10-01T10:24:31.122Z,19.52
2022-10-01T10:26:59.837Z,19.60
2022-10-01T10:29:32.464Z,19.63
2022-10-01T10:32:03.166Z,19.77
2022-10-01T10:35:24.351Z,19.84
2022-10-01T10:38:34.718Z,19.53
2022-10-01T10:41:03.897Z,19.73
2022-10-01T10:43:35.125Z,19.84
2022-10-01T10:46:02.897Z,19.80
2022-10-01T10:48:39.408Z,19.92
2022-10-01T10:51:06.347Z,20.12
2022-10-01T10:53:45.136Z,20.14
2022-10-01T10:56:23.581Z,20.24
2022-10-01T10:58:54.041Z,20.27
2022-10-01T11:01:43.132Z,20.35
2022-10-01T11:04:26.604Z,20.41
2022-10-01T11:07:01.689Z,20.31
2022-10-01T11:10:04.365Z,20.46
2022-10-01T11:12:49.605Z,20.44
2022-10-01T11:15:19.175Z,20.41
2022-10-01T11:18:13.101Z,20.36
2022-10-01T11:21:00.226Z,20.30
2022-10-01T11:23:34.089Z,20.47
2022-10-01T11:26:53.414Z,20.26
2022-10-01T11:29:36.052Z,20.35
2022-10-01T11:32:19.679Z,20.51
2022-10-01T11:34:50.389Z,20.39
2022-10-01T11:37:31.993Z,20.43
2022-10-01T11:40:03.276Z,20.56
2022-10-01T11:42:35.729Z,20.69
2022-10-01T11:45:23.226Z,20.43
2022-10-01T11:48:07.566Z,20.70
2022-10-01T11:50:41.903Z,20.47
2022-10-01T11:53:15.337Z,20.66
2022-10-01T11:56:04.519Z,20.74
2022-10-01T11:58:52.805Z,20.66
2022-10-01T12:01:30.178Z,20.95
2022-10-01T12:04:04.071Z,20.91
2022-10-01T12:06:38.136Z,20.87
2022-10-01T12:09:24.609Z,20.94
2022-10-01T12:12:01.212Z,21.12
2022-10-01T12:15:06.422Z,21.29
2022-10-01T12:17:45.045Z,21.22
2022-10-01T12:20:31.842Z,21.34
2022-10-01T12:23:02.509Z,21.68
2022-10-01T12:25:58.682Z,21.64
2022-10-01T12:28:37.416Z,21.51
2022-10-01T12:31:41.974Z,21.67
2022-10-01T12:34:23.917Z,21.48
2022-10-01T12:37:10.361Z,21.39
2022-10-01T12:40:15.051Z,21.60
2022-10-01T12:42:50.581Z,21.63
2022-10-01T12:45:38.728Z,21.46
2022-10-01T12:48:34.563Z,21.53
2022-10-01T12:51:42.927Z,21.53
2022-10-01T12:54:36.610Z,21.49
2022-10-01T12:57:11.809Z,21.36
2022-10-01T12:59:41.869Z,21.35
2022-10-01T13:02:20.691Z,21.32
2022-10-01T13:05:02.202Z,21.35
2022-10-01T13:08:01.021Z,21.35
2022-10-01T13:10:45.029Z,21.33
2022-10-01T13:13:32.997Z,21.25
2022-10-01T13:16:27.451Z,21.33
2022-10-01T13:19:06.366Z,21.17
2022-10-01T13:21:53.346Z,21.29
2022-10-01T13:24:32.914Z,21.18
2022-10-01T13:27:10.030Z,21.29
2022-10-01T13:29:55.081Z,21.36
2022-10-01T13:32:31.289Z,21.56
2022-10-01T13:35:01.147Z,21.67
2022-10-01T13:37:35.000Z,21.65
2022-10-01T13:40:02.512Z,21.73
2022-10-01T13:42:37.614Z,21.70
2022-10-01T13:45:22.741Z,21.23
2022-10-01T13:47:49.571Z,21.00
2022-10-01T13:50:24.702Z,20.70
2022-10-01T13:53:03.769Z,20.91
2022-10-01T13:55:31.867Z,21.03
2022-10-01T13:58:07.009Z,21.06
2022-10-01T14:00:34.140Z,20.99
2022-10-01T14:03:36.642Z,21.03
2022-10-01T14:06:07.772Z,21.07
2022-10-01T14:08:49.425Z,21.07
2022-10-01T14:11:47.875Z,21.04
2022-10-01T14:14:47.640Z,21.03
2022-10-01T14:17:15.152Z,20.87
2022-10-01T14:19:55.464Z,20.83
2022-10-01T14:22:49.448Z,20.94
2022-10-01T14:25:25.157Z,20.84
2022-10-01T14:28:12.638Z,20.85
2022-10-01T14:30:42.072Z,20.86
2022-10-01T14:33:08.615Z,20.59
2022-10-01T14:36:07.156Z,20.22
2022-10-01T14:38:34.360Z,20.23
2022-10-01T14:41:02.039Z,20.30
2022-10-01T14:43:31.664Z,19.89
2022-10-01T14:45:59.906Z,19.87
2022-10-01T14:48:29.800Z,20.00
2022-10-01T14:51:02.074Z,19.95
2022-10-01T14:53:32.269Z,19.92
2022-10-01T14:56:06.756Z,20.00
2022-10-01T14:58:37.896Z,20.02
2022-10-01T15:01:06.065Z,19.79
2022-10-01T15:03:38.738Z,19.83
2022-10-01T15:06:11.296Z,19.93
2022-10-01T15:08:49.193Z,19.67
2022-10-01T15:11:21.136Z,19.45
2022-10-01T15:13:49.987Z,19.19
2022-10-01T15:16:19.512Z,19.05
2022-10-01T15:18:59.316Z,19.24
2022-10-01T15:21:39.375Z,19.18
2022-10-01T15:24:15.280Z,18.83
2022-10-01T15:26:42.107Z,19.12
2022-10-01T15:29:16.589Z,18.97
2022-10-01T15:31:46.327Z,18.82
2022-10-01T15:34:16.768Z,18.57
2022-10-01T15:36:44.485Z,18.71
2022-10-01T15:39:31.692Z,18.70
2022-10-01T15:42:01.641Z,18.40
2022-10-01T15:44:38.763Z,18.45
2022-10-01T15:47:35.854Z,18.49
2022-10-01T15:50:11.289Z,18.46
2022-10-01T15:52:51.055Z,18.45
2022-10-01T15:55:24.666Z,18.36
2022-10-01T15:58:06.981Z,18.00
2022-10-01T16:00:59.181Z,18.02
2022-10-01T16:03:50.753Z,18.07
2022-10-01T16:06:23.664Z,18.30
2022-10-01T16:09:14.484Z,18.07
2022-10-01T16:12:04.084Z,18.07
2022-10-01T16:14:44.133Z,17.75
2022-10-01T16:17:16.932Z,17.70
2022-10-01T16:19:44.101Z,17.64
2022-10-01T16:22:19.988Z,17.50
2022-10-01T16:24:49.033Z,17.56
2022-10-01T16:27:20.848Z,17.48
2022-10-01T16:30:12.848Z,17.50
2022-10-01T16:32:39.423Z,17.79
2022-10-01T16:35:15.269Z,17.85
2022-10-01T16:37:42.013Z,17.82
2022-10-01T16:40:11.720Z,17.68
2022-10-01T16:42:42.992Z,17.72
2022-10-01T16:45:15.881Z,17.65
2022-10-01T16:47:42.709Z,17.51
2022-10-01T16:50:16.395Z,17.60
2022-10-01T16:52:43.054Z,17.63
2022-10-01T16:55:23.083Z,17.51
2022-10-01T16:57:56.832Z,17.52
2022-10-01T17:00:25.918Z,17.34
2022-10-01T17:02:54.412Z,17.26
2022-10-01T17:05:33.148Z,17.44
2022-10-01T17:08:04.426Z,17.32
2022-10-01T17:10:36.403Z,17.57
2022-10-01T17:13:03.726Z,17.42
2022-10-01T17:15:31.366Z,17.49
2022-10-01T17:17:58.870Z,17.41
2022-10-01T17:20:30.930Z,17.24
2022-10-01T17:22:58.429Z,17.37
2022-10-01T17:25:32.365Z,17.23
2022-10-01T17:28:01.601Z,17.31
2022-10-01T17:30:29.521Z,17.50
2022-10-01T17:32:57.405Z,17.39
2022-10-01T17:35:24.092Z,17.51
2022-10-01T17:37:50.648Z,17.53
2022-10-01T17:40:19.497Z,17.44
2022-10-01T17:42:47.151Z,17.63
2022-10-01T17:45:14.624Z,17.54
2022-10-01T17:47:49.217Z,17.34
2022-10-01T17:50:16.593Z,17.20
2022-10-01T17:52:43.678Z,17.20
2022-10-01T17:55:12.208Z,17.13
2022-10-01T17:57:38.873Z,16.94
2022-10-01T18:00:06.513Z,16.81
2022-10-01T18:02:41.996Z,16.79
2022-10-01T18:05:12.161Z,17.00
2022-10-01T18:07:39.050Z,16.96
2022-10-01T18:10:13.723Z,17.04
2022-10-01T18:12:40.922Z,17.00
2022-10-01T18:15:08.129Z,16.98
2022-10-01T18:17:36.500Z,16.96
2022-10-01T18:20:07.807Z,16.84
2022-10-01T18:22:35.789Z,17.09
2022-10-01T18:25:03.594Z,17.10
2022-10-01T18:27:30.879Z,17.06
2022-10-01T18:29:57.462Z,17.16
2022-10-01T18:32:29.662Z,17.00
2022-10-01T18:34:59.059Z,16.80
2022-10-01T18:37:40.478Z,16.94
2022-10-01T18:40:07.329Z,16.94
2022-10-01T18:42:55.250Z,16.74
2022-10-01T18:45:31.970Z,16.89
2022-10-01T18:48:06.753Z,16.71
2022-10-01T18:50:55.107Z,16.87
2022-10-01T18:53:39.878Z,16.82
2022-10-01T18:56:31.219Z,16.86
2022-10-01T18:59:22.342Z,16.77
2022-10-01T19:02:15.353Z,16.78
2022-10-01T19:05:00.465Z,16.81
2022-10-01T19:07:54.728Z,16.89
2022-10-01T19:10:30.587Z,16.80
2022-10-01T19:13:02.831Z,16.78
2022-10-01T19:15:40.768Z,16.78
2022-10-01T19:18:13.261Z,16.80
2022-10-01T19:20:59.194Z,16.54
2022-10-01T19:23:54.971Z,16.62
2022-10-01T19:26:44.577Z,16.60
2022-10-01T19:29:40.529Z,16.74
2022-10-01T19:32:16.400Z,16.84
2022-10-01T19:35:24.418Z,16.73
2022-10-01T19:37:55.173Z,16.80
2022-10-01T19:40:31.726Z,16.85
2022-10-01T19:43:19.535Z,16.77
2022-10-01T19:46:20.312Z,16.69
2022-10-01T19:48:58.061Z,16.82
2022-10-01T19:51:38.730Z,16.78
2022-10-01T19:54:17.615Z,16.84
2022-10-01T19:56:48.633Z,16.67
2022-10-01T19:59:19.928Z,16.53
2022-10-01T20:01:54.254Z,16.49
2022-10-01T20:04:39.230Z,16.50
2022-10-01T20:07:30.596Z,16.57
2022-10-01T20:10:29.473Z,16.55
2022-10-01T20:13:14.803Z,16.41
2022-10-01T20:16:02.819Z,16.36
2022-10-01T20:18:54.605Z,16.56
2022-10-01T20:21:50.195Z,16.68
2022-10-01T20:24:37.718Z,16.71
2022-10-01T20:27:11.514Z,16.77
2022-10-01T20:29:53.041Z,16.60
2022-10-01T20:32:27.430Z,16.68
2022-10-01T20:35:22.739Z,16.68
2022-10-01T20:38:08.565Z,16.72
2022-10-01T20:40:49.525Z,16.69
2022-10-01T20:43:35.226Z,16.73
2022-10-01T20:46:13.188Z,16.75
2022-10-01T20:48:47.509Z,16.71
2022-10-01T20:51:40.674Z,16.79
2022-10-01T20:54:12.233Z,16.73
2022-10-01T20:56:49.738Z,16.66
2022-10-01T20:59:27.452Z,16.72
2022-10-01T21:02:02.442Z,16.63
2022-10-01T21:04:41.206Z,16.61
2022-10-01T21:07:30.035Z,16.65
2022-10-01T21:10:03.419Z,16.46
2022-10-01T21:12:42.058Z,16.54
2022-10-01T21:15:14.203Z,16.63
2022-10-01T21:18:05.266Z,16.53
2022-10-01T21:20:34.430Z,16.48
2022-10-01T21:23:32.998Z,16.41
2022-10-01T21:26:19.209Z,16.37
2022-10-01T21:29:07.409Z,16.33
2022-10-01T21:32:12.634Z,16.19
2022-10-01T21:35:20.836Z,16.03
2022-10-01T21:38:00.264Z,16.08
2022-10-01T21:40:45.202Z,16.19
2022-10-01T21:43:43.899Z,16.44
2022-10-01T21:46:19.440Z,16.22
2022-10-01T21:49:09.779Z,16.24
2022-10-01T21:51:39.140Z,16.42
2022-10-01T21:54:32.054Z,16.47
2022-10-01T21:57:43.283Z,16.44
2022-10-01T22:00:16.725Z,16.45
2022-10-01T22:41:52.028Z,15.53
2022-10-01T22:44:21.128Z,15.60
2022-10-01T22:52:27.172Z,15.45
2022-10-01T22:55:09.061Z,15.40
2022-10-01T22:57:46.390Z,15.25
2022-10-01T23:00:14.739Z,15.29
